createdAt,value
2023-04-21T00:00:47.399Z,61.61
2023-04-21T00:03:24.068Z,61.67
2023-04-21T00:05:52.462Z,64.73
2023-04-21T00:08:20.673Z,68.24
2023-04-21T00:10:48.452Z,67.37
2023-04-21T00:13:16.325Z,63.07
2023-04-21T00:15:44.741Z,59.65
2023-04-21T00:18:13.645Z,56.02
2023-04-21T00:20:42.833Z,55.73
2023-04-21T00:23:11.352Z,56.34
2023-04-21T00:25:39.519Z,57.05
2023-04-21T00:28:07.272Z,57.87
2023-04-21T00:30:35.072Z,58.72
2023-04-21T00:33:02.939Z,59.44
2023-04-21T00:35:31.026Z,60.11
2023-04-21T00:37:58.805Z,60.61
2023-04-21T00:40:27.583Z,63.07
2023-04-21T00:42:55.497Z,67.13
2023-04-21T00:45:23.519Z,65.67
2023-04-21T00:47:52.463Z,63.79
2023-04-21T00:50:20.514Z,59.51
2023-04-21T00:52:49.215Z,56.11
2023-04-21T00:55:17.273Z,56.07
2023-04-21T00:57:45.200Z,57.03
2023-04-21T01:00:14.848Z,57.45
2023-04-21T01:02:42.880Z,58.37
2023-04-21T01:05:12.259Z,59.19
2023-04-21T01:07:40.478Z,59.95
2023-04-21T01:10:09.056Z,62.62
2023-04-21T01:12:45.334Z,64.43
2023-04-21T01:15:16.890Z,65.32
2023-04-21T01:17:45.638Z,63.62
2023-04-21T01:20:15.780Z,59.51
2023-04-21T01:22:45.144Z,55.88
2023-04-21T01:25:13.065Z,55.85
2023-04-21T01:27:40.925Z,56.93
2023-04-21T01:30:10.264Z,58.24
2023-04-21T01:32:38.167Z,59.25
2023-04-21T01:35:07.267Z,60.16
2023-04-21T01:37:35.653Z,60.89
2023-04-21T01:40:09.373Z,63.65
2023-04-21T01:42:41.582Z,67.50
2023-04-21T01:45:10.555Z,66.17
2023-04-21T01:47:38.659Z,62.40
2023-04-21T01:50:08.069Z,58.47
2023-04-21T01:52:35.902Z,56.10
2023-04-21T01:55:05.076Z,56.73
2023-04-21T01:57:32.861Z,57.49
2023-04-21T02:00:00.746Z,58.58
2023-04-21T02:02:28.763Z,59.46
2023-04-21T02:04:56.763Z,62.63
2023-04-21T02:07:24.748Z,66.52
2023-04-21T02:09:52.515Z,64.95
2023-04-21T02:12:20.334Z,62.80
2023-04-21T02:14:49.236Z,58.79
2023-04-21T02:17:17.914Z,56.08
2023-04-21T02:19:45.985Z,56.01
2023-04-21T02:22:13.842Z,57.00
2023-04-21T02:24:42.114Z,58.10
2023-04-21T02:27:09.938Z,59.18
2023-04-21T02:29:37.741Z,62.28
2023-04-21T02:32:14.347Z,65.93
2023-04-21T02:34:46.027Z,64.63
2023-04-21T02:37:13.771Z,62.70
2023-04-21T02:39:41.490Z,59.51
2023-04-21T02:42:09.272Z,56.67
2023-04-21T02:44:40.141Z,56.79
2023-04-21T02:47:07.882Z,57.66
2023-04-21T02:49:41.118Z,58.50
2023-04-21T02:52:09.276Z,59.70
2023-04-21T02:54:37.172Z,62.73
2023-04-21T02:57:05.041Z,65.41
2023-04-21T02:59:32.807Z,64.46
2023-04-21T03:02:00.986Z,63.00
2023-04-21T03:04:28.933Z,61.62
2023-04-21T03:06:57.068Z,59.04
2023-04-21T03:09:24.820Z,56.64
2023-04-21T03:11:52.653Z,56.78
2023-04-21T03:14:20.694Z,57.48
2023-04-21T03:16:49.039Z,58.34
2023-04-21T03:19:17.118Z,59.21
2023-04-21T03:21:45.085Z,60.06
2023-04-21T03:24:13.071Z,62.66
2023-04-21T03:26:41.248Z,65.11
2023-04-21T03:29:09.194Z,64.52
2023-04-21T03:31:37.061Z,63.45
2023-04-21T03:34:04.907Z,62.23
2023-04-21T03:36:32.835Z,60.39
2023-04-21T03:39:12.817Z,58.62
2023-04-21T03:41:48.319Z,57.17
2023-04-21T03:44:16.135Z,57.82
2023-04-21T03:46:43.950Z,58.61
2023-04-21T03:49:11.721Z,59.35
2023-04-21T03:51:39.504Z,60.30
2023-04-21T03:54:07.295Z,63.36
2023-04-21T03:56:37.464Z,66.68
2023-04-21T03:59:06.222Z,65.36
2023-04-21T04:01:35.210Z,63.31
2023-04-21T04:04:03.255Z,59.34
2023-04-21T04:06:32.781Z,56.30
2023-04-21T04:09:02.713Z,56.26
2023-04-21T04:11:33.568Z,56.97
2023-04-21T04:14:01.447Z,57.83
2023-04-21T04:16:29.489Z,58.46
2023-04-21T04:18:57.349Z,58.16
2023-04-21T04:21:25.153Z,57.54
2023-04-21T04:23:53.506Z,56.58
2023-04-21T04:26:24.914Z,55.92
2023-04-21T04:28:53.681Z,54.23
2023-04-21T04:31:21.669Z,53.02
2023-04-21T04:33:49.517Z,50.57
2023-04-21T04:36:17.440Z,49.81
2023-04-21T04:38:46.132Z,47.81
2023-04-21T04:41:15.903Z,46.89
2023-04-21T04:43:44.200Z,45.32
2023-04-21T04:46:13.304Z,44.11
2023-04-21T04:48:41.507Z,42.61
2023-04-21T04:51:09.379Z,41.85
2023-04-21T04:53:37.632Z,40.82
2023-04-21T04:56:05.892Z,38.71
2023-04-21T04:58:33.670Z,37.57
2023-04-21T05:01:17.656Z,38.31
2023-04-21T05:03:47.072Z,37.53
2023-04-21T05:06:15.329Z,37.24
2023-04-21T05:08:43.138Z,37.23
2023-04-21T05:11:10.925Z,36.46
2023-04-21T05:13:39.927Z,37.20
2023-04-21T05:16:10.374Z,36.01
2023-04-21T05:18:38.658Z,35.81
2023-04-21T05:21:06.516Z,36.37
2023-04-21T05:23:34.519Z,36.83
2023-04-21T05:26:04.494Z,36.76
2023-04-21T05:28:32.589Z,37.15
2023-04-21T05:31:00.360Z,38.21
2023-04-21T05:33:28.123Z,40.31
2023-04-21T05:35:55.885Z,42.71
2023-04-21T05:38:23.681Z,45.15
2023-04-21T05:40:56.297Z,46.79
2023-04-21T05:43:24.051Z,48.07
2023-04-21T05:45:51.886Z,49.43
2023-04-21T05:48:19.797Z,50.81
2023-04-21T05:50:47.584Z,51.73
2023-04-21T05:53:15.470Z,52.72
2023-04-21T05:55:43.586Z,53.42
2023-04-21T05:58:11.863Z,53.64
2023-04-21T06:00:39.610Z,54.08
2023-04-21T06:03:07.500Z,54.04
2023-04-21T06:05:35.567Z,54.16
2023-04-21T06:08:08.392Z,54.05
2023-04-21T06:10:36.242Z,54.16
2023-04-21T06:13:04.073Z,54.47
2023-04-21T06:15:31.839Z,53.95
2023-04-21T06:17:59.703Z,54.15
2023-04-21T06:20:28.671Z,54.29
2023-04-21T06:22:56.599Z,54.52
2023-04-21T06:25:24.492Z,54.38
2023-04-21T06:27:52.593Z,54.90
2023-04-21T06:30:20.671Z,54.81
2023-04-21T06:32:48.990Z,53.81
2023-04-21T06:35:17.576Z,54.08
2023-04-21T06:37:45.400Z,54.13
2023-04-21T06:40:16.366Z,54.32
2023-04-21T06:42:44.259Z,54.58
2023-04-21T06:45:12.063Z,53.98
2023-04-21T06:47:39.830Z,53.34
2023-04-21T06:50:09.045Z,53.23
2023-04-21T06:52:36.787Z,53.38
2023-04-21T06:55:05.757Z,53.43
2023-04-21T06:57:33.552Z,53.08
2023-04-21T07:00:01.281Z,53.33
2023-04-21T07:02:29.154Z,53.63
2023-04-21T07:04:57.027Z,53.20
2023-04-21T07:07:24.808Z,53.29
2023-04-21T07:09:52.557Z,53.52
2023-04-21T07:12:20.771Z,53.23
2023-04-21T07:14:48.586Z,53.45
2023-04-21T07:17:16.404Z,52.81
2023-04-21T07:19:44.180Z,53.01
2023-04-21T07:22:11.948Z,52.92
2023-04-21T07:24:39.698Z,52.34
2023-04-21T07:27:07.490Z,51.64
2023-04-21T07:29:35.293Z,52.09
2023-04-21T07:32:03.108Z,52.00
2023-04-21T07:34:30.912Z,51.72
2023-04-21T07:36:58.959Z,50.72
2023-04-21T07:39:26.957Z,50.09
2023-04-21T07:41:55.992Z,50.40
2023-04-21T07:44:23.828Z,50.85
2023-04-21T07:46:51.629Z,50.66
2023-04-21T07:49:19.689Z,50.53
2023-04-21T07:51:47.744Z,50.26
2023-04-21T07:54:15.618Z,50.78
2023-04-21T07:56:43.473Z,49.54
2023-04-21T07:59:11.501Z,49.77
2023-04-21T08:01:39.281Z,48.68
2023-04-21T08:04:07.275Z,48.43
2023-04-21T08:06:35.251Z,45.88
2023-04-21T08:09:03.059Z,46.73
2023-04-21T08:11:30.914Z,46.49
2023-04-21T08:13:58.692Z,46.46
2023-04-21T08:16:26.669Z,46.47
2023-04-21T08:18:54.678Z,46.15
2023-04-21T08:21:22.506Z,46.32
2023-04-21T08:23:51.204Z,46.21
2023-04-21T08:26:22.000Z,46.65
2023-04-21T08:28:51.123Z,46.63
2023-04-21T08:31:19.850Z,46.52
2023-04-21T08:34:00.441Z,46.69
2023-04-21T08:36:30.551Z,47.10
2023-04-21T08:38:59.214Z,46.39
2023-04-21T08:41:27.844Z,46.11
2023-04-21T08:43:55.834Z,45.78
2023-04-21T08:46:24.474Z,46.09
2023-04-21T08:48:54.576Z,46.16
2023-04-21T08:51:24.568Z,46.56
2023-04-21T08:53:55.645Z,46.67
2023-04-21T08:56:27.260Z,46.85
2023-04-21T08:58:55.056Z,46.17
2023-04-21T09:01:22.969Z,45.92
2023-04-21T09:03:50.974Z,45.84
2023-04-21T09:06:19.151Z,45.60
2023-04-21T09:08:58.330Z,44.83
2023-04-21T09:11:26.288Z,43.66
2023-04-21T09:13:58.397Z,44.84
2023-04-21T09:16:33.390Z,44.81
2023-04-21T09:19:01.829Z,43.31
2023-04-21T09:21:32.427Z,42.89
2023-04-21T09:24:06.888Z,42.86
2023-04-21T09:26:37.638Z,43.63
2023-04-21T09:29:07.794Z,44.33
2023-04-21T09:31:36.332Z,44.12
2023-04-21T09:34:21.373Z,44.03
2023-04-21T09:36:49.411Z,44.58
2023-04-21T09:41:48.009Z,44.09
2023-04-21T09:44:18.219Z,43.35
2023-04-21T09:46:51.314Z,42.26
2023-04-21T09:49:24.640Z,41.83
2023-04-21T09:54:30.844Z,41.52
2023-04-21T09:57:04.670Z,42.87
2023-04-21T09:59:37.335Z,42.75
2023-04-21T10:02:07.984Z,42.61
2023-04-21T10:04:38.618Z,42.25
2023-04-21T10:07:07.572Z,42.34
2023-04-21T10:09:45.485Z,42.27
2023-04-21T10:12:15.538Z,42.42
2023-04-21T10:14:43.350Z,41.76
2023-04-21T10:17:11.902Z,40.88
2023-04-21T10:19:51.370Z,41.22
2023-04-21T10:22:34.198Z,41.18
2023-04-21T10:25:04.824Z,41.55
2023-04-21T10:27:46.044Z,40.29
2023-04-21T10:30:26.843Z,40.22
2023-04-21T10:33:06.545Z,39.79
2023-04-21T10:36:02.375Z,39.58
2023-04-21T10:38:44.246Z,39.77
2023-04-21T10:41:34.853Z,40.48
2023-04-21T10:44:14.070Z,40.78
2023-04-21T10:46:53.476Z,40.20
2023-04-21T10:49:30.655Z,38.55
2023-04-21T10:51:58.577Z,39.17
2023-04-21T10:54:36.808Z,38.85
2023-04-21T10:57:08.285Z,37.62
2023-04-21T10:59:36.462Z,38.03
2023-04-21T11:02:12.442Z,37.46
2023-04-21T11:04:45.961Z,38.32
2023-04-21T11:07:26.083Z,37.79
2023-04-21T11:10:07.247Z,38.21
2023-04-21T11:12:39.346Z,36.83
2023-04-21T11:15:10.889Z,36.43
2023-04-21T11:17:45.530Z,37.23
2023-04-21T11:20:13.666Z,36.16
2023-04-21T11:22:41.566Z,36.50
2023-04-21T11:25:18.836Z,35.05
2023-04-21T11:28:05.052Z,35.37
2023-04-21T11:30:36.959Z,35.50
2023-04-21T11:33:04.860Z,35.72
2023-04-21T11:35:32.926Z,36.24
2023-04-21T11:38:05.915Z,36.17
2023-04-21T11:40:50.019Z,36.40
2023-04-21T11:43:18.365Z,35.45
2023-04-21T11:45:50.983Z,35.77
2023-04-21T11:48:19.765Z,36.01
2023-04-21T11:50:51.078Z,36.25
2023-04-21T11:53:19.749Z,36.00
2023-04-21T11:55:47.703Z,35.91
2023-04-21T11:58:18.058Z,36.09
2023-04-21T12:00:46.534Z,36.80
2023-04-21T12:03:15.010Z,35.81
2023-04-21T12:05:43.023Z,35.73
2023-04-21T12:08:16.449Z,36.81
2023-04-21T12:10:47.181Z,36.65
2023-04-21T12:13:23.694Z,36.97
2023-04-21T12:15:51.608Z,37.11
2023-04-21T12:18:19.663Z,36.66
2023-04-21T12:20:52.610Z,36.83
2023-04-21T12:23:20.615Z,37.02
2023-04-21T12:25:48.916Z,36.89
2023-04-21T12:28:18.080Z,37.57
2023-04-21T12:30:45.989Z,37.36
2023-04-21T12:33:13.988Z,37.75
2023-04-21T12:35:41.861Z,37.52
2023-04-21T12:38:09.695Z,37.64
2023-04-21T12:40:37.501Z,36.96
2023-04-21T12:43:05.320Z,37.06
2023-04-21T12:45:33.220Z,37.14
2023-04-21T12:48:01.248Z,37.44
2023-04-21T12:50:29.227Z,37.96
2023-04-21T12:52:56.956Z,37.60
2023-04-21T12:55:25.332Z,37.32
2023-04-21T12:57:53.084Z,38.23
2023-04-21T13:00:21.453Z,39.17
2023-04-21T13:02:49.469Z,39.98
2023-04-21T13:05:17.458Z,39.52
2023-04-21T13:07:45.465Z,39.39
2023-04-21T13:10:13.519Z,39.29
2023-04-21T13:12:42.400Z,39.57
2023-04-21T13:15:11.114Z,39.63
2023-04-21T13:17:38.992Z,39.49
2023-04-21T13:20:08.072Z,38.89
2023-04-21T13:22:35.906Z,39.23
2023-04-21T13:25:04.702Z,39.06
2023-04-21T13:27:33.884Z,39.35
2023-04-21T13:30:02.000Z,38.12
2023-04-21T13:32:29.836Z,38.60
2023-04-21T13:34:58.300Z,38.26
2023-04-21T13:37:26.238Z,38.96
2023-04-21T13:39:54.095Z,39.32
2023-04-21T13:42:22.000Z,39.79
2023-04-21T13:44:49.886Z,40.42
2023-04-21T13:47:18.020Z,40.51
2023-04-21T13:49:46.374Z,40.03
2023-04-21T13:52:14.149Z,40.41
2023-04-21T13:54:42.379Z,39.94
2023-04-21T13:57:10.853Z,39.86
2023-04-21T13:59:39.048Z,40.21
2023-04-21T14:02:07.833Z,40.71
2023-04-21T14:04:37.229Z,41.26
2023-04-21T14:07:06.707Z,40.92
2023-04-21T14:09:35.251Z,40.86
2023-04-21T14:12:03.666Z,40.65
2023-04-21T14:14:38.544Z,40.42
2023-04-21T14:17:08.401Z,40.54
2023-04-21T14:19:36.876Z,40.76
2023-04-21T14:22:05.086Z,40.56
2023-04-21T14:24:32.957Z,40.06
2023-04-21T14:27:01.341Z,40.06
2023-04-21T14:29:29.172Z,39.49
2023-04-21T14:31:58.831Z,38.70
2023-04-21T14:34:27.170Z,39.30
2023-04-21T14:36:55.131Z,39.15
2023-04-21T14:39:23.193Z,38.98
2023-04-21T14:41:51.190Z,37.87
2023-04-21T14:44:19.229Z,37.68
2023-04-21T14:46:56.924Z,37.66
2023-04-21T14:49:34.325Z,37.98
2023-04-21T14:52:03.705Z,38.11
2023-04-21T14:54:31.686Z,38.13
2023-04-21T14:57:17.626Z,37.91
2023-04-21T14:59:46.973Z,36.85
2023-04-21T15:02:15.586Z,37.13
2023-04-21T15:04:44.251Z,35.66
2023-04-21T15:07:12.973Z,35.84
2023-04-21T15:09:43.255Z,35.58
2023-04-21T15:12:13.517Z,36.05
2023-04-21T15:14:42.164Z,36.36
2023-04-21T15:17:10.055Z,35.98
2023-04-21T15:19:38.268Z,35.28
2023-04-21T15:22:06.289Z,35.10
2023-04-21T15:24:34.294Z,34.59
2023-04-21T15:27:02.561Z,34.86
2023-04-21T15:29:30.803Z,34.77
2023-04-21T15:32:01.113Z,34.22
2023-04-21T15:34:29.151Z,34.06
2023-04-21T15:37:01.636Z,34.02
2023-04-21T15:39:29.954Z,34.10
2023-04-21T15:42:01.518Z,33.64
2023-04-21T15:44:34.076Z,33.61
2023-04-21T15:47:02.800Z,32.72
2023-04-21T15:49:31.176Z,32.73
2023-04-21T15:52:02.540Z,32.13
2023-04-21T15:54:34.293Z,32.76
2023-04-21T15:57:12.678Z,33.16
2023-04-21T15:59:41.525Z,33.06
2023-04-21T16:02:24.214Z,32.96
2023-04-21T16:04:52.871Z,33.77
2023-04-21T16:07:21.409Z,33.73
2023-04-21T16:09:52.449Z,33.18
2023-04-21T16:12:20.304Z,33.13
2023-04-21T16:14:57.752Z,33.28
2023-04-21T16:17:37.761Z,34.21
2023-04-21T16:20:15.054Z,34.57
2023-04-21T16:23:19.019Z,35.26
2023-04-21T16:25:47.801Z,35.80
2023-04-21T16:28:19.102Z,36.27
2023-04-21T16:30:51.506Z,36.37
2023-04-21T16:33:27.870Z,36.66
2023-04-21T16:35:57.311Z,37.07
2023-04-21T16:38:44.795Z,36.96
2023-04-21T16:41:14.955Z,37.02
2023-04-21T16:43:45.380Z,36.88
2023-04-21T16:46:13.898Z,36.37
2023-04-21T16:48:42.016Z,36.19
2023-04-21T16:51:09.881Z,35.79
2023-04-21T16:53:40.127Z,35.72
2023-04-21T16:56:09.003Z,35.49
2023-04-21T16:58:37.864Z,35.22
2023-04-21T17:01:07.717Z,35.67
2023-04-21T17:03:39.304Z,35.55
2023-04-21T17:06:11.070Z,35.70
2023-04-21T17:08:38.928Z,35.93
2023-04-21T17:11:06.793Z,35.66
2023-04-21T17:13:42.526Z,35.87
2023-04-21T17:16:11.987Z,36.14
2023-04-21T17:18:40.269Z,36.00
2023-04-21T17:21:08.079Z,35.93
2023-04-21T17:23:36.355Z,36.11
2023-04-21T17:26:05.302Z,36.21
2023-04-21T17:28:33.664Z,36.78
2023-04-21T17:31:14.470Z,37.15
2023-04-21T17:33:45.234Z,37.62
2023-04-21T17:36:13.253Z,37.66
2023-04-21T17:38:42.923Z,37.33
2023-04-21T17:41:11.057Z,37.41
2023-04-21T17:43:39.066Z,37.42
2023-04-21T17:46:08.209Z,37.86
2023-04-21T17:48:36.364Z,38.10
2023-04-21T17:51:04.702Z,38.23
2023-04-21T17:53:33.200Z,38.51
2023-04-21T17:56:01.756Z,38.43
2023-04-21T17:58:29.614Z,38.39
2023-04-21T18:00:57.544Z,39.01
2023-04-21T18:03:25.944Z,39.01
2023-04-21T18:05:55.597Z,39.10
2023-04-21T18:08:29.327Z,39.27
2023-04-21T18:10:59.698Z,39.50
2023-04-21T18:13:31.157Z,39.72
2023-04-21T18:16:00.688Z,39.99
2023-04-21T18:18:31.435Z,40.11
2023-04-21T18:21:07.274Z,40.58
2023-04-21T18:23:37.622Z,40.86
2023-04-21T18:26:05.952Z,40.88
2023-04-21T18:28:33.998Z,40.98
2023-04-21T18:31:02.057Z,41.32
2023-04-21T18:33:32.204Z,41.49
2023-04-21T18:36:00.349Z,41.76
2023-04-21T18:38:33.113Z,42.15
2023-04-21T18:41:04.060Z,42.16
2023-04-21T18:43:32.650Z,42.24
2023-04-21T18:46:00.676Z,42.42
2023-04-21T18:48:28.520Z,42.43
2023-04-21T18:50:56.732Z,42.46
2023-04-21T18:53:31.184Z,42.19
2023-04-21T18:56:02.202Z,42.18
2023-04-21T18:58:35.183Z,42.18
2023-04-21T19:01:07.017Z,42.41
2023-04-21T19:03:35.864Z,42.41
2023-04-21T19:06:05.350Z,42.68
2023-04-21T19:08:42.469Z,42.41
2023-04-21T19:11:15.934Z,42.51
2023-04-21T19:13:43.805Z,42.60
2023-04-21T19:16:12.296Z,42.81
2023-04-21T19:18:41.748Z,42.82
2023-04-21T19:21:13.917Z,42.95
2023-04-21T19:23:41.994Z,42.56
2023-04-21T19:26:13.558Z,42.86
2023-04-21T19:28:42.389Z,43.39
2023-04-21T19:31:10.215Z,43.35
2023-04-21T19:33:39.044Z,43.44
2023-04-21T19:36:07.777Z,43.30
2023-04-21T19:38:36.274Z,43.75
2023-04-21T19:41:04.381Z,44.01
2023-04-21T19:43:35.099Z,44.19
2023-04-21T19:46:03.012Z,44.06
2023-04-21T19:48:31.689Z,44.58
2023-04-21T19:50:59.762Z,44.81
2023-04-21T19:53:27.666Z,45.34
2023-04-21T19:55:56.146Z,45.43
2023-04-21T19:58:38.803Z,45.53
2023-04-21T20:01:08.581Z,45.12
2023-04-21T20:03:37.367Z,45.13
2023-04-21T20:06:06.079Z,45.67
2023-04-21T20:08:35.889Z,46.27
2023-04-21T20:11:03.941Z,45.43
2023-04-21T20:13:32.006Z,45.65
2023-04-21T20:16:00.024Z,45.53
2023-04-21T20:18:28.463Z,46.24
2023-04-21T20:20:56.519Z,46.66
2023-04-21T20:23:24.689Z,46.94
2023-04-21T20:25:52.603Z,46.96
2023-04-21T20:28:20.778Z,46.53
2023-04-21T20:30:48.698Z,47.38
2023-04-21T20:33:17.345Z,48.26
2023-04-21T20:35:46.131Z,47.89
2023-04-21T20:38:14.503Z,48.41
2023-04-21T20:40:45.103Z,48.85
2023-04-21T20:43:14.133Z,48.53
2023-04-21T20:45:42.071Z,47.34
2023-04-21T20:48:09.848Z,48.31
2023-04-21T20:50:37.840Z,49.04
2023-04-21T20:53:07.532Z,49.36
2023-04-21T20:55:35.841Z,48.52
2023-04-21T20:58:05.205Z,48.00
2023-04-21T21:00:34.765Z,48.30
2023-04-21T21:03:04.017Z,47.78
2023-04-21T21:05:34.225Z,47.65
2023-04-21T21:08:02.402Z,47.33
2023-04-21T21:10:30.770Z,47.00
2023-04-21T21:12:59.883Z,46.88
2023-04-21T21:15:28.720Z,46.82
2023-04-21T21:17:57.199Z,47.60
2023-04-21T21:20:25.105Z,47.38
2023-04-21T21:22:53.132Z,47.25
2023-04-21T21:25:21.414Z,47.74
2023-04-21T21:27:49.255Z,47.66
2023-04-21T21:30:17.115Z,49.28
2023-04-21T21:32:45.094Z,48.01
2023-04-21T21:35:13.124Z,49.12
2023-04-21T21:37:40.877Z,48.91
2023-04-21T21:40:09.933Z,49.84
2023-04-21T21:42:39.438Z,50.20
2023-04-21T21:45:07.960Z,51.04
2023-04-21T21:47:39.346Z,51.97
2023-04-21T21:50:11.329Z,51.99
2023-04-21T21:52:39.245Z,52.91
2023-04-21T21:55:08.133Z,50.79
2023-04-21T21:57:37.078Z,50.17
2023-04-21T22:00:09.256Z,49.88
2023-04-21T22:02:37.087Z,50.95
2023-04-21T22:05:06.011Z,51.21
2023-04-21T22:07:35.487Z,51.30
2023-04-21T22:10:04.194Z,51.49
2023-04-21T22:12:33.208Z,51.40
2023-04-21T22:15:01.259Z,52.01
2023-04-21T22:17:29.766Z,51.74
2023-04-21T22:19:57.922Z,52.83
2023-04-21T22:22:25.864Z,53.73
2023-04-21T22:24:53.583Z,53.64
2023-04-21T22:27:21.457Z,52.53
2023-04-21T22:29:49.233Z,52.49
2023-04-21T22:32:17.281Z,52.19
2023-04-21T22:34:45.048Z,52.13
2023-04-21T22:37:13.280Z,52.24
2023-04-21T22:39:41.225Z,52.31
2023-04-21T22:42:09.171Z,52.23
2023-04-21T22:44:37.040Z,52.02
2023-04-21T22:47:05.059Z,51.89
2023-04-21T22:49:32.915Z,51.86
2023-04-21T22:52:00.762Z,51.77
2023-04-21T22:54:28.610Z,51.88
2023-04-21T22:56:56.709Z,52.01
2023-04-21T22:59:24.494Z,52.14
2023-04-21T23:01:52.292Z,52.28
2023-04-21T23:04:20.122Z,52.75
2023-04-21T23:06:47.913Z,53.50
2023-04-21T23:09:15.802Z,55.03
2023-04-21T23:11:43.693Z,54.50
2023-04-21T23:14:11.486Z,53.65
2023-04-21T23:16:39.402Z,53.64
2023-04-21T23:19:07.158Z,53.86
2023-04-21T23:21:35.939Z,53.97
2023-04-21T23:24:03.834Z,53.99
2023-04-21T23:26:31.635Z,54.07
2023-04-21T23:28:59.358Z,54.05
2023-04-21T23:31:27.209Z,54.03
2023-04-21T23:33:55.118Z,54.03
2023-04-21T23:36:22.878Z,54.25
2023-04-21T23:38:50.891Z,54.51
2023-04-21T23:41:19.159Z,54.64
2023-04-21T23:43:47.175Z,54.88
2023-04-21T23:46:15.250Z,54.91
2023-04-21T23:48:42.996Z,54.89
2023-04-21T23:51:10.884Z,54.94
2023-04-21T23:53:38.821Z,54.92
2023-04-21T23:56:07.116Z,55.09
2023-04-21T23:58:34.921Z,55.20
